createdAt,value
2022-12-31T00:01:06.150Z,3.60
2022-12-31T00:03:36.300Z,3.90
2022-12-31T00:06:15.745Z,3.97
2022-12-31T00:08:44.891Z,2.70
2022-12-31T00:11:13.487Z,3.03
2022-12-31T00:13:43.287Z,2.40
2022-12-31T00:16:13.953Z,2.90
2022-12-31T00:18:45.042Z,3.87
2022-12-31T00:21:15.895Z,3.90
2022-12-31T00:23:44.672Z,3.70
2022-12-31T00:26:15.860Z,2.77
2022-12-31T00:28:45.564Z,2.30
2022-12-31T00:31:16.099Z,3.60
2022-12-31T00:33:45.274Z,3.73
2022-12-31T00:36:17.241Z,3.20
2022-12-31T00:38:51.328Z,2.90
2022-12-31T00:41:24.804Z,2.73
2022-12-31T00:43:53.649Z,4.20
2022-12-31T00:46:22.682Z,3.50
2022-12-31T00:48:51.319Z,3.13
2022-12-31T00:51:27.374Z,2.63
2022-12-31T00:53:59.930Z,3.30
2022-12-31T00:56:29.175Z,4.03
2022-12-31T00:59:00.942Z,2.33
2022-12-31T01:01:31.127Z,2.23
2022-12-31T01:04:01.669Z,3.63
2022-12-31T01:06:31.657Z,3.87
2022-12-31T01:09:02.803Z,3.80
2022-12-31T01:11:29.776Z,2.50
2022-12-31T01:14:00.190Z,3.83
2022-12-31T01:16:30.247Z,3.97
2022-12-31T01:19:03.477Z,2.90
2022-12-31T01:21:33.512Z,2.80
2022-12-31T01:24:03.537Z,2.10
2022-12-31T01:26:32.031Z,2.40
2022-12-31T01:29:01.152Z,2.23
2022-12-31T01:31:30.440Z,2.00
2022-12-31T01:33:59.884Z,2.00
2022-12-31T01:36:29.863Z,2.00
2022-12-31T01:39:02.030Z,2.60
2022-12-31T01:41:34.040Z,2.50
2022-12-31T01:44:04.248Z,1.80
2022-12-31T01:46:37.218Z,2.03
2022-12-31T01:49:11.273Z,1.93
2022-12-31T01:51:40.154Z,2.17
2022-12-31T01:54:11.095Z,1.80
2022-12-31T01:56:41.285Z,2.87
2022-12-31T01:59:11.485Z,2.07
2022-12-31T02:01:43.808Z,2.30
2022-12-31T02:04:15.196Z,1.90
2022-12-31T02:09:33.815Z,1.80
2022-12-31T02:12:02.151Z,1.60
2022-12-31T02:14:32.112Z,1.30
2022-12-31T02:17:07.112Z,1.63
2022-12-31T02:20:06.678Z,1.40
2022-12-31T02:22:47.532Z,1.57
2022-12-31T02:25:52.066Z,1.30
2022-12-31T02:28:35.531Z,1.17
2022-12-31T02:31:10.400Z,1.27
2022-12-31T02:33:41.285Z,0.90
2022-12-31T02:36:13.516Z,1.40
2022-12-31T02:38:47.151Z,0.80
2022-12-31T02:41:36.199Z,1.10
2022-12-31T02:44:24.995Z,1.30
2022-12-31T02:47:06.310Z,1.53
2022-12-31T02:49:38.762Z,1.20
2022-12-31T02:52:12.699Z,1.20
2022-12-31T02:54:46.258Z,1.27
2022-12-31T02:57:18.231Z,1.40
2022-12-31T03:00:31.093Z,1.30
2022-12-31T03:03:02.068Z,1.77
2022-12-31T03:05:32.283Z,1.40
2022-12-31T03:08:01.042Z,2.10
2022-12-31T03:10:30.525Z,1.63
2022-12-31T03:12:58.145Z,1.30
2022-12-31T03:15:31.319Z,1.40
2022-12-31T03:18:05.218Z,2.20
2022-12-31T03:20:52.859Z,1.40
2022-12-31T03:23:25.503Z,2.47
2022-12-31T03:25:53.375Z,0.93
2022-12-31T03:28:25.095Z,2.47
2022-12-31T03:30:55.565Z,1.10
2022-12-31T03:33:25.534Z,1.13
2022-12-31T03:35:54.569Z,1.17
2022-12-31T03:38:23.675Z,1.10
2022-12-31T03:40:53.377Z,1.30
2022-12-31T03:43:21.558Z,1.33
2022-12-31T03:45:52.609Z,0.90
2022-12-31T03:48:22.652Z,1.20
2022-12-31T03:50:52.245Z,2.10
2022-12-31T03:53:20.943Z,1.30
2022-12-31T03:55:56.075Z,0.90
2022-12-31T03:58:25.684Z,1.73
2022-12-31T04:00:54.235Z,1.23
2022-12-31T04:03:22.409Z,0.70
2022-12-31T04:05:55.432Z,0.83
2022-12-31T04:08:25.066Z,1.93
2022-12-31T04:10:54.131Z,0.90
2022-12-31T04:13:22.677Z,0.90
2022-12-31T04:15:52.311Z,1.07
2022-12-31T04:18:20.716Z,0.80
2022-12-31T04:20:48.757Z,0.60
2022-12-31T04:23:18.832Z,1.00
2022-12-31T04:25:46.858Z,0.80
2022-12-31T04:28:15.039Z,0.63
2022-12-31T04:30:44.797Z,0.83
2022-12-31T04:33:12.777Z,0.70
2022-12-31T04:35:41.454Z,0.80
2022-12-31T04:38:09.810Z,0.77
2022-12-31T04:40:59.958Z,0.80
2022-12-31T04:43:27.972Z,0.93
2022-12-31T04:45:56.169Z,0.63
2022-12-31T04:48:24.412Z,0.80
2022-12-31T04:50:53.207Z,1.93
2022-12-31T04:53:21.570Z,0.77
2022-12-31T04:55:51.864Z,0.60
2022-12-31T04:58:20.515Z,0.73
2022-12-31T05:00:50.656Z,0.83
2022-12-31T05:03:19.518Z,0.97
2022-12-31T05:05:47.934Z,1.10
2022-12-31T05:08:18.387Z,0.67
2022-12-31T05:10:49.716Z,1.27
2022-12-31T05:13:19.613Z,0.63
2022-12-31T05:15:48.360Z,0.90
2022-12-31T05:18:17.726Z,0.70
2022-12-31T05:20:47.625Z,0.60
2022-12-31T05:23:16.421Z,0.50
2022-12-31T05:25:45.778Z,0.60
2022-12-31T05:28:15.069Z,1.10
2022-12-31T05:30:46.333Z,0.73
2022-12-31T05:33:14.679Z,1.17
2022-12-31T05:35:42.947Z,0.50
2022-12-31T05:38:13.391Z,0.80
2022-12-31T05:40:41.463Z,2.23
2022-12-31T05:43:09.547Z,0.80
2022-12-31T05:45:37.589Z,0.60
2022-12-31T05:48:08.101Z,2.73
2022-12-31T05:50:37.913Z,1.83
2022-12-31T05:53:06.532Z,1.27
2022-12-31T05:55:34.652Z,1.27
2022-12-31T05:58:03.142Z,1.57
2022-12-31T06:00:31.119Z,1.30
2022-12-31T06:02:59.953Z,1.60
2022-12-31T06:05:29.573Z,1.30
2022-12-31T06:07:58.177Z,1.60
2022-12-31T06:10:26.784Z,1.80
2022-12-31T06:12:55.358Z,1.83
2022-12-31T06:15:23.632Z,2.93
2022-12-31T06:17:51.511Z,2.13
2022-12-31T06:20:19.701Z,1.93
2022-12-31T06:22:49.707Z,1.80
2022-12-31T06:25:17.934Z,1.67
2022-12-31T06:27:46.193Z,2.93
2022-12-31T06:30:15.234Z,2.37
2022-12-31T06:32:43.825Z,1.83
2022-12-31T06:35:13.318Z,1.60
2022-12-31T06:37:41.468Z,2.37
2022-12-31T06:40:13.470Z,1.50
2022-12-31T06:42:42.952Z,1.47
2022-12-31T06:45:11.920Z,1.30
2022-12-31T06:47:39.915Z,0.80
2022-12-31T06:50:09.314Z,1.60
2022-12-31T06:52:37.443Z,1.00
2022-12-31T06:55:06.855Z,1.10
2022-12-31T06:57:37.508Z,2.37
2022-12-31T07:00:07.980Z,0.87
2022-12-31T07:02:59.269Z,1.30
2022-12-31T07:05:40.145Z,1.80
2022-12-31T07:08:17.634Z,1.47
2022-12-31T07:10:51.373Z,1.03
2022-12-31T07:13:47.524Z,0.80
2022-12-31T07:16:24.794Z,0.83
2022-12-31T07:18:57.947Z,1.13
2022-12-31T07:21:33.251Z,0.70
2022-12-31T07:24:01.829Z,1.13
2022-12-31T07:26:42.319Z,1.20
2022-12-31T07:29:17.458Z,0.53
2022-12-31T07:31:56.752Z,0.50
2022-12-31T07:34:28.136Z,0.57
2022-12-31T07:37:04.415Z,0.80
2022-12-31T07:39:41.103Z,1.03
2022-12-31T07:42:15.016Z,0.80
2022-12-31T07:44:53.679Z,0.77
2022-12-31T07:47:24.711Z,1.20
2022-12-31T07:49:53.946Z,0.53
2022-12-31T07:52:24.001Z,3.00
2022-12-31T07:54:53.184Z,0.60
2022-12-31T07:57:22.536Z,1.17
2022-12-31T08:00:03.377Z,1.83
2022-12-31T08:03:16.219Z,1.10
2022-12-31T08:05:51.928Z,0.70
2022-12-31T08:08:29.568Z,0.60
2022-12-31T08:11:07.848Z,1.70
2022-12-31T08:13:36.455Z,1.33
2022-12-31T08:16:13.099Z,0.70
2022-12-31T08:18:41.836Z,0.77
2022-12-31T08:21:21.784Z,1.27
2022-12-31T08:23:56.618Z,0.70
2022-12-31T08:26:31.345Z,0.70
2022-12-31T08:29:07.194Z,0.63
2022-12-31T08:31:45.273Z,0.53
2022-12-31T08:34:19.552Z,1.10
2022-12-31T08:36:54.016Z,0.70
2022-12-31T08:39:34.331Z,0.40
2022-12-31T08:42:05.598Z,0.80
2022-12-31T08:44:39.120Z,1.27
2022-12-31T08:47:14.161Z,0.70
2022-12-31T08:49:42.750Z,0.70
2022-12-31T08:52:17.399Z,1.60
2022-12-31T08:54:45.966Z,1.40
2022-12-31T08:57:20.730Z,0.77
2022-12-31T08:59:52.729Z,0.90
2022-12-31T09:02:59.621Z,0.80
2022-12-31T09:05:36.500Z,2.13
2022-12-31T09:08:11.099Z,1.03
2022-12-31T09:10:44.590Z,1.10
2022-12-31T09:13:18.487Z,0.87
2022-12-31T09:15:54.199Z,1.10
2022-12-31T09:18:27.047Z,0.80
2022-12-31T09:20:59.953Z,1.30
2022-12-31T09:23:29.558Z,0.90
2022-12-31T09:26:02.486Z,1.80
2022-12-31T09:28:39.657Z,1.17
2022-12-31T09:31:13.361Z,1.40
2022-12-31T09:33:51.318Z,2.23
2022-12-31T09:36:25.831Z,1.87
2022-12-31T09:39:02.191Z,1.90
2022-12-31T09:42:13.816Z,1.27
2022-12-31T09:45:12.799Z,2.20
2022-12-31T09:48:16.949Z,1.73
2022-12-31T09:51:07.324Z,1.87
2022-12-31T09:53:42.027Z,1.27
2022-12-31T09:56:16.115Z,1.70
2022-12-31T09:58:54.164Z,1.80
2022-12-31T10:01:30.084Z,2.07
2022-12-31T10:04:12.283Z,1.73
2022-12-31T10:06:47.532Z,1.13
2022-12-31T10:09:32.081Z,1.90
2022-12-31T10:12:15.995Z,1.20
2022-12-31T10:14:56.920Z,1.90
2022-12-31T10:17:33.750Z,1.80
2022-12-31T10:20:21.737Z,1.13
2022-12-31T10:23:22.549Z,1.37
2022-12-31T10:26:10.493Z,2.07
2022-12-31T10:28:47.413Z,1.83
2022-12-31T10:31:23.039Z,1.87
2022-12-31T10:33:56.562Z,2.53
2022-12-31T10:36:32.089Z,1.40
2022-12-31T10:39:08.949Z,2.80
2022-12-31T10:42:23.143Z,1.47
2022-12-31T10:45:29.119Z,1.30
2022-12-31T10:48:43.458Z,1.40
2022-12-31T10:51:43.705Z,1.80
2022-12-31T10:55:02.907Z,1.80
2022-12-31T10:57:54.613Z,2.20
2022-12-31T11:00:29.388Z,1.20
2022-12-31T11:03:39.958Z,1.20
2022-12-31T11:06:31.665Z,3.33
2022-12-31T11:09:34.199Z,1.80
2022-12-31T11:12:06.661Z,2.77
2022-12-31T11:14:51.627Z,1.97
2022-12-31T11:17:32.542Z,4.23
2022-12-31T11:20:17.493Z,1.43
2022-12-31T11:22:58.061Z,1.60
2022-12-31T11:25:34.520Z,2.43
2022-12-31T11:28:17.958Z,2.23
2022-12-31T11:30:59.408Z,2.37
2022-12-31T11:33:36.612Z,1.50
2022-12-31T11:36:19.447Z,6.23
2022-12-31T11:38:52.636Z,1.50
2022-12-31T11:41:24.809Z,2.33
2022-12-31T11:44:01.937Z,1.50
2022-12-31T11:46:49.596Z,1.60
2022-12-31T11:49:47.552Z,2.47
2022-12-31T11:52:31.793Z,2.33
2022-12-31T11:55:12.029Z,2.60
2022-12-31T11:57:42.293Z,2.37
2022-12-31T12:00:20.162Z,2.27
2022-12-31T12:02:49.283Z,2.30
2022-12-31T12:05:20.185Z,3.07
2022-12-31T12:07:51.770Z,2.33
2022-12-31T12:10:29.138Z,2.47
2022-12-31T12:13:01.725Z,3.27
2022-12-31T12:15:32.640Z,1.47
2022-12-31T12:18:05.816Z,1.57
2022-12-31T12:20:37.313Z,2.73
2022-12-31T12:23:17.696Z,3.30
2022-12-31T12:25:46.601Z,3.40
2022-12-31T12:28:22.601Z,2.53
2022-12-31T12:30:57.089Z,2.60
2022-12-31T12:33:26.619Z,3.20
2022-12-31T12:35:54.955Z,1.53
2022-12-31T12:38:24.911Z,2.20
2022-12-31T12:41:00.205Z,3.37
2022-12-31T12:43:31.745Z,3.30
2022-12-31T12:46:03.916Z,2.37
2022-12-31T12:48:38.003Z,2.93
2022-12-31T12:51:18.470Z,4.50
2022-12-31T12:53:55.783Z,2.00
2022-12-31T12:56:32.452Z,3.20
2022-12-31T12:59:17.325Z,2.60
2022-12-31T13:01:51.213Z,2.30
2022-12-31T13:04:39.967Z,3.00
2022-12-31T13:07:32.290Z,2.40
2022-12-31T13:10:23.183Z,3.43
2022-12-31T13:13:23.203Z,2.00
2022-12-31T13:15:51.123Z,3.47
2022-12-31T13:18:31.710Z,2.30
2022-12-31T13:21:03.327Z,1.70
2022-12-31T13:23:39.891Z,2.47
2022-12-31T13:26:13.335Z,2.60
2022-12-31T13:28:43.778Z,2.93
2022-12-31T13:31:15.836Z,1.73
2022-12-31T13:33:47.926Z,3.40
2022-12-31T13:36:18.323Z,2.33
2022-12-31T13:38:48.533Z,2.10
2022-12-31T13:41:20.664Z,1.67
2022-12-31T13:43:57.974Z,2.43
2022-12-31T13:46:38.814Z,1.80
2022-12-31T13:49:15.489Z,1.90
2022-12-31T13:51:47.924Z,1.70
2022-12-31T13:54:27.791Z,3.67
2022-12-31T13:56:58.936Z,2.53
2022-12-31T13:59:30.120Z,1.80
2022-12-31T14:02:02.069Z,1.83
2022-12-31T14:04:34.880Z,2.60
2022-12-31T14:07:08.658Z,2.40
2022-12-31T14:09:37.892Z,3.17
2022-12-31T14:12:31.156Z,1.50
2022-12-31T14:15:05.264Z,3.00
2022-12-31T14:17:39.070Z,2.07
2022-12-31T14:20:16.419Z,2.60
2022-12-31T14:22:50.868Z,1.63
2022-12-31T14:25:22.804Z,2.07
2022-12-31T14:27:54.777Z,3.70
2022-12-31T14:30:25.013Z,1.90
2022-12-31T14:33:15.279Z,2.23
2022-12-31T14:35:57.901Z,3.17
2022-12-31T14:38:38.490Z,1.50
2022-12-31T14:41:14.768Z,2.83
2022-12-31T14:43:50.636Z,3.83
2022-12-31T14:46:27.259Z,2.77
2022-12-31T14:49:03.981Z,2.90
2022-12-31T14:51:32.292Z,3.57
2022-12-31T14:54:00.583Z,4.37
2022-12-31T14:56:33.309Z,6.67
2022-12-31T14:59:03.940Z,2.00
2022-12-31T15:01:32.557Z,4.63
2022-12-31T15:04:02.066Z,2.37
2022-12-31T15:06:37.462Z,3.73
2022-12-31T15:09:19.678Z,3.00
2022-12-31T15:12:04.961Z,2.90
2022-12-31T15:14:45.884Z,2.73
2022-12-31T15:17:23.623Z,3.57
2022-12-31T15:20:25.939Z,2.77
2022-12-31T15:22:55.460Z,4.03
2022-12-31T15:25:35.228Z,4.23
2022-12-31T15:28:08.401Z,2.97
2022-12-31T15:30:45.396Z,4.50
2022-12-31T15:33:21.365Z,2.80
2022-12-31T15:35:51.860Z,4.23
2022-12-31T15:38:33.785Z,3.40
2022-12-31T15:41:02.528Z,3.37
2022-12-31T15:43:37.486Z,4.10
2022-12-31T15:46:12.602Z,3.73
2022-12-31T15:48:47.832Z,3.37
2022-12-31T15:51:22.807Z,8.43
2022-12-31T15:53:53.360Z,4.07
2022-12-31T15:56:27.367Z,5.60
2022-12-31T15:59:00.523Z,5.13
2022-12-31T16:01:32.685Z,4.57
2022-12-31T16:04:04.500Z,5.07
2022-12-31T16:06:37.255Z,6.43
2022-12-31T16:09:08.188Z,7.90
2022-12-31T16:11:38.468Z,5.03
2022-12-31T16:14:08.176Z,5.17
2022-12-31T16:16:38.850Z,4.37
2022-12-31T16:19:31.344Z,4.67
2022-12-31T16:22:03.495Z,4.17
2022-12-31T16:24:35.225Z,3.47
2022-12-31T16:27:08.589Z,4.73
2022-12-31T16:29:37.620Z,6.20
2022-12-31T16:32:12.494Z,4.73
2022-12-31T16:34:41.080Z,5.03
2022-12-31T16:37:16.734Z,3.93
2022-12-31T16:40:09.881Z,6.80
2022-12-31T16:42:44.293Z,4.63
2022-12-31T16:45:20.547Z,4.00
2022-12-31T16:47:51.458Z,4.17
2022-12-31T16:50:22.311Z,5.10
2022-12-31T16:52:52.369Z,3.70
2022-12-31T16:55:23.255Z,5.60
2022-12-31T16:57:55.680Z,4.70
2022-12-31T17:00:27.319Z,4.83
2022-12-31T17:03:09.093Z,4.33
2022-12-31T17:05:57.111Z,5.33
2022-12-31T17:08:27.977Z,3.73
2022-12-31T17:10:58.319Z,4.03
2022-12-31T17:13:30.748Z,3.27
2022-12-31T17:15:59.835Z,5.07
2022-12-31T17:18:31.878Z,4.23
2022-12-31T17:21:08.831Z,6.97
2022-12-31T17:23:39.617Z,5.17
2022-12-31T17:26:10.883Z,5.07
2022-12-31T17:28:43.556Z,5.73
2022-12-31T17:31:30.468Z,8.27
2022-12-31T17:34:27.188Z,7.67
2022-12-31T17:37:02.252Z,4.83
2022-12-31T17:39:47.015Z,5.17
2022-12-31T17:42:29.569Z,6.80
2022-12-31T17:45:01.169Z,7.37
2022-12-31T17:47:38.745Z,5.67
2022-12-31T17:50:21.515Z,7.70
2022-12-31T17:52:49.962Z,5.67
2022-12-31T17:55:19.278Z,5.00
2022-12-31T17:57:50.672Z,6.80
2022-12-31T18:00:20.657Z,5.60
2022-12-31T18:02:49.226Z,7.30
2022-12-31T18:05:20.301Z,5.17
2022-12-31T18:07:49.060Z,5.57
2022-12-31T18:10:18.913Z,7.43
2022-12-31T18:12:48.452Z,5.87
2022-12-31T18:15:18.549Z,5.67
2022-12-31T18:17:46.942Z,6.80
2022-12-31T18:20:15.411Z,8.07
2022-12-31T18:22:45.544Z,5.63
2022-12-31T18:25:17.358Z,6.63
2022-12-31T18:27:46.753Z,5.27
2022-12-31T18:30:17.706Z,6.23
2022-12-31T18:32:49.719Z,7.00
2022-12-31T18:35:58.132Z,7.50
2022-12-31T18:38:20.159Z,7.17
2022-12-31T18:40:58.130Z,7.90
2022-12-31T18:43:26.866Z,5.60
2022-12-31T18:45:55.732Z,6.40
2022-12-31T18:48:24.567Z,5.43
2022-12-31T18:50:52.684Z,7.00
2022-12-31T18:53:24.851Z,9.50
2022-12-31T18:55:57.111Z,9.87
2022-12-31T18:58:25.736Z,6.17
2022-12-31T19:00:53.839Z,5.40
2022-12-31T19:03:25.638Z,7.10
2022-12-31T19:05:55.669Z,10.43
2022-12-31T19:08:25.503Z,8.07
2022-12-31T19:10:55.398Z,7.13
2022-12-31T19:13:24.141Z,7.33
2022-12-31T19:15:53.327Z,8.07
2022-12-31T19:18:21.507Z,7.90
2022-12-31T19:20:49.860Z,9.23
2022-12-31T19:23:26.093Z,10.73
2022-12-31T19:25:55.937Z,10.77
2022-12-31T19:28:25.451Z,8.97
2022-12-31T19:30:53.956Z,11.73
2022-12-31T19:33:22.419Z,8.67
2022-12-31T19:35:50.552Z,8.17
2022-12-31T19:38:21.353Z,8.40
2022-12-31T19:40:50.392Z,9.87
2022-12-31T19:43:22.560Z,7.47
2022-12-31T19:45:51.401Z,9.57
2022-12-31T19:48:28.719Z,7.90
2022-12-31T19:51:01.594Z,8.77
2022-12-31T19:53:31.585Z,8.00
2022-12-31T19:55:59.623Z,8.10
2022-12-31T19:58:31.118Z,10.00
2022-12-31T20:01:03.358Z,10.57
2022-12-31T20:03:33.379Z,8.67
2022-12-31T20:06:04.648Z,14.30
2022-12-31T20:08:33.472Z,14.20
2022-12-31T20:11:08.465Z,11.00
2022-12-31T20:13:38.405Z,10.73
2022-12-31T20:16:09.367Z,12.07
2022-12-31T20:18:38.391Z,11.03
2022-12-31T20:21:10.436Z,12.57
2022-12-31T20:23:38.588Z,12.33
2022-12-31T20:26:08.079Z,10.37
2022-12-31T20:28:39.342Z,10.87
2022-12-31T20:31:08.350Z,8.63
2022-12-31T20:33:36.553Z,10.33
2022-12-31T20:36:05.699Z,7.83
2022-12-31T20:38:34.489Z,8.40
2022-12-31T20:41:06.427Z,6.73
2022-12-31T20:43:35.328Z,10.77
2022-12-31T20:46:15.313Z,8.20
2022-12-31T20:48:45.010Z,9.53
2022-12-31T20:51:13.560Z,8.17
2022-12-31T20:53:42.213Z,6.97
2022-12-31T20:56:10.643Z,7.10
2022-12-31T20:58:39.222Z,8.43
2022-12-31T21:01:10.864Z,7.70
2022-12-31T21:06:28.994Z,6.77
2022-12-31T21:08:59.401Z,9.47
2022-12-31T21:11:45.270Z,7.17
2022-12-31T21:14:16.190Z,7.23
2022-12-31T21:16:46.157Z,9.43
2022-12-31T21:19:14.677Z,8.13
2022-12-31T21:21:43.219Z,8.27
2022-12-31T21:24:12.045Z,9.97
2022-12-31T21:26:40.997Z,8.97
2022-12-31T21:29:10.827Z,11.83
2022-12-31T21:31:41.621Z,9.57
2022-12-31T21:34:11.356Z,6.87
2022-12-31T21:36:39.840Z,8.73
2022-12-31T21:39:08.407Z,9.93
2022-12-31T21:41:52.606Z,10.60
2022-12-31T21:44:21.505Z,11.67
2022-12-31T21:47:32.770Z,11.10
2022-12-31T21:49:39.177Z,10.03
2022-12-31T21:52:26.717Z,10.50
2022-12-31T21:55:12.805Z,9.63
2022-12-31T21:58:07.128Z,8.93
2022-12-31T22:00:47.873Z,7.80
2022-12-31T22:03:31.724Z,9.27
2022-12-31T22:06:10.214Z,11.33
2022-12-31T22:08:38.325Z,9.53
2022-12-31T22:11:07.510Z,10.07
2022-12-31T22:13:36.589Z,10.57
2022-12-31T22:16:06.751Z,15.43
2022-12-31T22:18:39.086Z,6.73
2022-12-31T22:21:18.339Z,10.83
2022-12-31T22:23:51.785Z,8.67
2022-12-31T22:26:24.620Z,6.50
2022-12-31T22:28:53.196Z,11.10
2022-12-31T22:31:24.907Z,12.83
2022-12-31T22:33:57.039Z,11.80
2022-12-31T22:36:29.605Z,13.40
2022-12-31T22:38:59.613Z,12.60
2022-12-31T22:41:30.302Z,13.43
2022-12-31T22:44:03.777Z,19.70
2022-12-31T22:46:33.181Z,18.10
2022-12-31T22:49:02.413Z,10.40
2022-12-31T22:51:57.162Z,12.80
2022-12-31T22:54:20.991Z,18.70
2022-12-31T22:56:51.660Z,32.33
2022-12-31T22:59:21.340Z,25.93
2022-12-31T23:01:50.648Z,63.17
2022-12-31T23:04:18.980Z,66.93
2022-12-31T23:06:49.777Z,83.87
2022-12-31T23:09:36.958Z,96.63
2022-12-31T23:12:08.172Z,122.43
2022-12-31T23:14:55.990Z,270.93
2022-12-31T23:17:44.899Z,132.37
2022-12-31T23:20:34.378Z,76.37
2022-12-31T23:23:10.898Z,100.23
2022-12-31T23:25:41.033Z,113.00
2022-12-31T23:28:11.671Z,70.20
2022-12-31T23:30:40.630Z,62.30
2022-12-31T23:33:09.637Z,95.43
2022-12-31T23:35:39.505Z,61.57
2022-12-31T23:38:10.979Z,62.73
2022-12-31T23:40:40.402Z,46.60
2022-12-31T23:43:11.688Z,48.87
2022-12-31T23:45:40.392Z,51.57
2022-12-31T23:48:09.595Z,51.73
2022-12-31T23:50:37.989Z,50.50
2022-12-31T23:53:06.351Z,51.87
2022-12-31T23:55:36.105Z,56.03
2022-12-31T23:58:04.109Z,46.40
